sensor_id;sensor_type;location;lat;lon;timestamp;temperature;humidity
18067;DHT22;9158;51.528;7.192;2023-05-09T00:00:16;16.20;79.60
18067;DHT22;9158;51.528;7.192;2023-05-09T00:00:48;16.20;64.50
18067;DHT22;9158;51.528;7.192;2023-05-09T00:01:19;16.20;91.90
18067;DHT22;9158;51.528;7.192;2023-05-09T00:01:50;16.20;50.80
18067;DHT22;9158;51.528;7.192;2023-05-09T00:02:23;16.20;84.40
18067;DHT22;9158;51.528;7.192;2023-05-09T00:02:54;16.20;46.80
18067;DHT22;9158;51.528;7.192;2023-05-09T00:03:25;16.20;71.30
18067;DHT22;9158;51.528;7.192;2023-05-09T00:03:57;16.20;99.90
18067;DHT22;9158;51.528;7.192;2023-05-09T00:04:28;16.20;99.90
18067;DHT22;9158;51.528;7.192;2023-05-09T00:04:59;16.20;99.90
18067;DHT22;9158;51.528;7.192;2023-05-09T00:05:33;16.10;99.90
18067;DHT22;9158;51.528;7.192;2023-05-09T00:06:04;16.20;99.90
18067;DHT22;9158;51.528;7.192;2023-05-09T00:06:35;16.20;99.90
18067;DHT22;9158;51.528;7.192;2023-05-09T00:07:07;16.10;99.90
18067;DHT22;9158;51.528;7.192;2023-05-09T00:07:40;16.20;99.90
18067;DHT22;9158;51.528;7.192;2023-05-09T00:08:11;16.10;99.90
18067;DHT22;9158;51.528;7.192;2023-05-09T00:08:43;16.20;99.90
18067;DHT22;9158;51.528;7.192;2023-05-09T00:09:15;16.10;99.90
18067;DHT22;9158;51.528;7.192;2023-05-09T00:09:46;16.10;99.90
18067;DHT22;9158;51.528;7.192;2023-05-09T00:10:18;16.10;99.90
18067;DHT22;9158;51.528;7.192;2023-05-09T00:10:49;16.10;99.90
18067;DHT22;9158;51.528;7.192;2023-05-09T00:11:21;16.10;99.90
18067;DHT22;9158;51.528;7.192;2023-05-09T00:11:53;16.10;99.90
18067;DHT22;9158;51.528;7.192;2023-05-09T00:12:24;16.10;99.90
18067;DHT22;9158;51.528;7.192;2023-05-09T00:12:55;16.10;99.90
18067;DHT22;9158;51.528;7.192;2023-05-09T00:13:28;16.10;98.90
18067;DHT22;9158;51.528;7.192;2023-05-09T00:13:59;16.10;99.90
18067;DHT22;9158;51.528;7.192;2023-05-09T00:14:31;16.10;99.90
18067;DHT22;9158;51.528;7.192;2023-05-09T00:15:04;16.10;99.90
18067;DHT22;9158;51.528;7.192;2023-05-09T00:15:37;16.10;99.90
18067;DHT22;9158;51.528;7.192;2023-05-09T00:16:09;16.10;99.90
18067;DHT22;9158;51.528;7.192;2023-05-09T00:16:41;16.10;99.90
18067;DHT22;9158;51.528;7.192;2023-05-09T00:17:12;16.00;99.90
18067;DHT22;9158;51.528;7.192;2023-05-09T00:17:44;16.00;99.90
18067;DHT22;9158;51.528;7.192;2023-05-09T00:18:16;16.00;99.90
18067;DHT22;9158;51.528;7.192;2023-05-09T00:18:47;16.10;99.90
18067;DHT22;9158;51.528;7.192;2023-05-09T00:19:18;16.10;99.90
18067;DHT22;9158;51.528;7.192;2023-05-09T00:19:50;16.00;99.90
18067;DHT22;9158;51.528;7.192;2023-05-09T00:20:22;16.00;99.90
18067;DHT22;9158;51.528;7.192;2023-05-09T00:20:53;16.10;99.90
18067;DHT22;9158;51.528;7.192;2023-05-09T00:21:26;16.00;99.90
18067;DHT22;9158;51.528;7.192;2023-05-09T00:21:57;16.00;99.90
18067;DHT22;9158;51.528;7.192;2023-05-09T00:22:28;16.00;99.90
18067;DHT22;9158;51.528;7.192;2023-05-09T00:23:00;16.00;99.90
18067;DHT22;9158;51.528;7.192;2023-05-09T00:23:31;16.00;99.90
18067;DHT22;9158;51.528;7.192;2023-05-09T00:24:03;16.00;99.90
18067;DHT22;9158;51.528;7.192;2023-05-09T00:24:36;16.00;99.90
18067;DHT22;9158;51.528;7.192;2023-05-09T00:25:08;16.00;99.90
18067;DHT22;9158;51.528;7.192;2023-05-09T00:25:39;16.00;99.90
18067;DHT22;9158;51.528;7.192;2023-05-09T00:26:11;16.00;99.90
18067;DHT22;9158;51.528;7.192;2023-05-09T00:26:45;16.00;99.90
18067;DHT22;9158;51.528;7.192;2023-05-09T00:27:16;16.00;97.40
18067;DHT22;9158;51.528;7.192;2023-05-09T00:27:47;16.00;99.90
18067;DHT22;9158;51.528;7.192;2023-05-09T00:28:19;16.00;99.90
18067;DHT22;9158;51.528;7.192;2023-05-09T00:28:50;16.00;99.90
18067;DHT22;9158;51.528;7.192;2023-05-09T00:29:21;16.00;72.00
18067;DHT22;9158;51.528;7.192;2023-05-09T00:29:53;16.00;79.60
18067;DHT22;9158;51.528;7.192;2023-05-09T00:30:24;16.00;83.10
18067;DHT22;9158;51.528;7.192;2023-05-09T00:30:55;16.00;99.90
18067;DHT22;9158;51.528;7.192;2023-05-09T00:31:26;16.00;99.90
18067;DHT22;9158;51.528;7.192;2023-05-09T00:31:58;16.00;94.50
18067;DHT22;9158;51.528;7.192;2023-05-09T00:32:31;16.00;82.70
18067;DHT22;9158;51.528;7.192;2023-05-09T00:33:02;16.00;90.30
18067;DHT22;9158;51.528;7.192;2023-05-09T00:33:33;16.00;98.20
18067;DHT22;9158;51.528;7.192;2023-05-09T00:34:05;16.00;91.00
18067;DHT22;9158;51.528;7.192;2023-05-09T00:34:36;16.00;74.70
18067;DHT22;9158;51.528;7.192;2023-05-09T00:35:07;16.00;81.80
18067;DHT22;9158;51.528;7.192;2023-05-09T00:35:40;15.90;99.20
18067;DHT22;9158;51.528;7.192;2023-05-09T00:36:11;15.90;99.90
18067;DHT22;9158;51.528;7.192;2023-05-09T00:36:42;15.90;99.90
18067;DHT22;9158;51.528;7.192;2023-05-09T00:37:14;15.90;99.90
18067;DHT22;9158;51.528;7.192;2023-05-09T00:37:47;15.90;97.20
18067;DHT22;9158;51.528;7.192;2023-05-09T00:38:18;15.90;96.10
18067;DHT22;9158;51.528;7.192;2023-05-09T00:38:50;16.00;99.40
18067;DHT22;9158;51.528;7.192;2023-05-09T00:39:22;15.90;99.90
18067;DHT22;9158;51.528;7.192;2023-05-09T00:39:54;15.90;99.90
18067;DHT22;9158;51.528;7.192;2023-05-09T00:40:25;15.90;99.90
18067;DHT22;9158;51.528;7.192;2023-05-09T00:40:57;15.90;99.90
18067;DHT22;9158;51.528;7.192;2023-05-09T00:41:28;15.90;99.90
18067;DHT22;9158;51.528;7.192;2023-05-09T00:41:59;15.90;99.90
18067;DHT22;9158;51.528;7.192;2023-05-09T00:42:31;15.90;99.90
18067;DHT22;9158;51.528;7.192;2023-05-09T00:43:02;15.90;82.40
18067;DHT22;9158;51.528;7.192;2023-05-09T00:43:34;15.90;49.60
18067;DHT22;9158;51.528;7.192;2023-05-09T00:44:06;15.90;80.70
18067;DHT22;9158;51.528;7.192;2023-05-09T00:44:37;15.90;60.10
18067;DHT22;9158;51.528;7.192;2023-05-09T00:45:09;15.90;59.10
18067;DHT22;9158;51.528;7.192;2023-05-09T00:45:40;15.90;99.90
18067;DHT22;9158;51.528;7.192;2023-05-09T00:46:12;15.90;73.50
18067;DHT22;9158;51.528;7.192;2023-05-09T00:46:43;15.90;89.30
18067;DHT22;9158;51.528;7.192;2023-05-09T00:47:14;15.90;67.60
18067;DHT22;9158;51.528;7.192;2023-05-09T00:47:46;15.90;51.90
18067;DHT22;9158;51.528;7.192;2023-05-09T00:48:17;15.90;24.70
18067;DHT22;9158;51.528;7.192;2023-05-09T00:48:48;15.90;65.40
18067;DHT22;9158;51.528;7.192;2023-05-09T00:49:22;15.90;95.20
18067;DHT22;9158;51.528;7.192;2023-05-09T00:49:53;15.90;62.30
18067;DHT22;9158;51.528;7.192;2023-05-09T00:50:24;15.90;66.60
18067;DHT22;9158;51.528;7.192;2023-05-09T00:50:56;15.90;52.90
18067;DHT22;9158;51.528;7.192;2023-05-09T00:51:27;15.90;66.00
18067;DHT22;9158;51.528;7.192;2023-05-09T00:51:58;15.90;87.10
18067;DHT22;9158;51.528;7.192;2023-05-09T00:52:32;15.80;87.90
18067;DHT22;9158;51.528;7.192;2023-05-09T00:53:04;15.80;97.30
18067;DHT22;9158;51.528;7.192;2023-05-09T00:53:35;15.80;99.90
18067;DHT22;9158;51.528;7.192;2023-05-09T00:54:07;15.80;99.90
18067;DHT22;9158;51.528;7.192;2023-05-09T00:54:39;15.80;94.40
18067;DHT22;9158;51.528;7.192;2023-05-09T00:55:12;15.80;99.90
18067;DHT22;9158;51.528;7.192;2023-05-09T00:55:43;15.80;99.50
18067;DHT22;9158;51.528;7.192;2023-05-09T00:56:16;15.80;99.90
18067;DHT22;9158;51.528;7.192;2023-05-09T00:56:47;15.80;99.90
18067;DHT22;9158;51.528;7.192;2023-05-09T00:57:18;15.80;92.90
18067;DHT22;9158;51.528;7.192;2023-05-09T00:57:50;15.80;91.70
18067;DHT22;9158;51.528;7.192;2023-05-09T00:58:21;15.80;99.90
18067;DHT22;9158;51.528;7.192;2023-05-09T00:58:53;15.70;99.90
18067;DHT22;9158;51.528;7.192;2023-05-09T00:59:26;15.80;99.90
18067;DHT22;9158;51.528;7.192;2023-05-09T00:59:57;15.70;99.90
18067;DHT22;9158;51.528;7.192;2023-05-09T01:00:28;15.80;99.90
18067;DHT22;9158;51.528;7.192;2023-05-09T01:01:00;15.80;99.90
18067;DHT22;9158;51.528;7.192;2023-05-09T01:01:33;15.70;99.90
18067;DHT22;9158;51.528;7.192;2023-05-09T01:02:04;15.70;99.90
18067;DHT22;9158;51.528;7.192;2023-05-09T01:02:36;15.70;99.90
18067;DHT22;9158;51.528;7.192;2023-05-09T01:03:07;15.70;99.90
18067;DHT22;9158;51.528;7.192;2023-05-09T01:03:39;15.70;99.90
18067;DHT22;9158;51.528;7.192;2023-05-09T01:04:12;15.70;99.90
18067;DHT22;9158;51.528;7.192;2023-05-09T01:04:44;15.70;99.90
18067;DHT22;9158;51.528;7.192;2023-05-09T01:05:16;15.70;99.90
18067;DHT22;9158;51.528;7.192;2023-05-09T01:05:54;15.70;99.90
18067;DHT22;9158;51.528;7.192;2023-05-09T01:06:34;15.70;99.90
18067;DHT22;9158;51.528;7.192;2023-05-09T01:07:15;15.70;99.90
18067;DHT22;9158;51.528;7.192;2023-05-09T01:07:53;15.70;99.90
18067;DHT22;9158;51.528;7.192;2023-05-09T01:08:36;15.70;99.90
18067;DHT22;9158;51.528;7.192;2023-05-09T01:09:19;15.70;99.90
18067;DHT22;9158;51.528;7.192;2023-05-09T01:09:59;15.70;99.90
18067;DHT22;9158;51.528;7.192;2023-05-09T01:10:37;15.70;99.90
18067;DHT22;9158;51.528;7.192;2023-05-09T01:11:11;15.70;99.90
18067;DHT22;9158;51.528;7.192;2023-05-09T01:11:50;15.70;99.90
18067;DHT22;9158;51.528;7.192;2023-05-09T01:12:30;15.70;99.90
18067;DHT22;9158;51.528;7.192;2023-05-09T01:13:15;15.60;99.90
18067;DHT22;9158;51.528;7.192;2023-05-09T01:13:54;15.60;99.90
18067;DHT22;9158;51.528;7.192;2023-05-09T01:14:36;15.70;99.90
18067;DHT22;9158;51.528;7.192;2023-05-09T01:15:13;15.60;99.90
18067;DHT22;9158;51.528;7.192;2023-05-09T01:15:51;15.70;99.90
18067;DHT22;9158;51.528;7.192;2023-05-09T01:16:30;15.70;99.90
18067;DHT22;9158;51.528;7.192;2023-05-09T01:17:09;15.60;99.90
18067;DHT22;9158;51.528;7.192;2023-05-09T01:17:48;15.60;99.90
18067;DHT22;9158;51.528;7.192;2023-05-09T01:18:27;15.60;99.90
18067;DHT22;9158;51.528;7.192;2023-05-09T01:19:11;15.60;99.90
18067;DHT22;9158;51.528;7.192;2023-05-09T01:19:57;15.60;99.90
18067;DHT22;9158;51.528;7.192;2023-05-09T01:20:33;15.60;99.90
18067;DHT22;9158;51.528;7.192;2023-05-09T01:21:09;15.60;99.90
18067;DHT22;9158;51.528;7.192;2023-05-09T01:21:42;15.60;99.90
18067;DHT22;9158;51.528;7.192;2023-05-09T01:22:14;15.60;99.90
18067;DHT22;9158;51.528;7.192;2023-05-09T01:22:51;15.60;99.90
18067;DHT22;9158;51.528;7.192;2023-05-09T01:24:43;15.60;99.90
18067;DHT22;9158;51.528;7.192;2023-05-09T01:25:40;15.60;99.90
18067;DHT22;9158;51.528;7.192;2023-05-09T01:26:17;15.50;99.90
18067;DHT22;9158;51.528;7.192;2023-05-09T01:27:05;15.50;99.90
18067;DHT22;9158;51.528;7.192;2023-05-09T01:27:49;15.50;99.90
18067;DHT22;9158;51.528;7.192;2023-05-09T01:28:50;15.40;99.90
18067;DHT22;9158;51.528;7.192;2023-05-09T01:29:35;15.30;99.90
18067;DHT22;9158;51.528;7.192;2023-05-09T01:30:07;15.30;99.90
18067;DHT22;9158;51.528;7.192;2023-05-09T01:30:41;15.30;99.90
18067;DHT22;9158;51.528;7.192;2023-05-09T01:31:15;15.30;99.90
18067;DHT22;9158;51.528;7.192;2023-05-09T01:31:48;15.20;99.90
18067;DHT22;9158;51.528;7.192;2023-05-09T01:32:23;15.20;99.90
18067;DHT22;9158;51.528;7.192;2023-05-09T01:32:58;15.20;99.90
18067;DHT22;9158;51.528;7.192;2023-05-09T01:33:32;15.20;99.90
18067;DHT22;9158;51.528;7.192;2023-05-09T01:34:06;15.20;99.90
18067;DHT22;9158;51.528;7.192;2023-05-09T01:34:39;15.20;99.90
18067;DHT22;9158;51.528;7.192;2023-05-09T01:35:12;15.20;99.90
18067;DHT22;9158;51.528;7.192;2023-05-09T01:35:50;15.20;99.90
18067;DHT22;9158;51.528;7.192;2023-05-09T01:36:25;15.20;1.00
18067;DHT22;9158;51.528;7.192;2023-05-09T01:36:59;15.20;1.00
18067;DHT22;9158;51.528;7.192;2023-05-09T01:37:32;15.30;1.00
18067;DHT22;9158;51.528;7.192;2023-05-09T01:38:08;15.30;1.00
18067;DHT22;9158;51.528;7.192;2023-05-09T01:38:42;15.30;1.00
18067;DHT22;9158;51.528;7.192;2023-05-09T01:39:16;15.30;1.00
18067;DHT22;9158;51.528;7.192;2023-05-09T01:39:50;15.30;1.00
18067;DHT22;9158;51.528;7.192;2023-05-09T01:40:24;15.30;1.00
18067;DHT22;9158;51.528;7.192;2023-05-09T01:40:59;15.40;1.00
18067;DHT22;9158;51.528;7.192;2023-05-09T01:41:35;15.40;1.00
18067;DHT22;9158;51.528;7.192;2023-05-09T01:42:10;15.40;1.00
18067;DHT22;9158;51.528;7.192;2023-05-09T01:42:44;15.50;1.00
18067;DHT22;9158;51.528;7.192;2023-05-09T01:43:19;15.50;99.90
18067;DHT22;9158;51.528;7.192;2023-05-09T01:43:52;15.50;99.90
18067;DHT22;9158;51.528;7.192;2023-05-09T01:44:24;15.50;99.90
18067;DHT22;9158;51.528;7.192;2023-05-09T01:44:58;15.50;99.90
18067;DHT22;9158;51.528;7.192;2023-05-09T01:45:31;15.50;99.90
18067;DHT22;9158;51.528;7.192;2023-05-09T01:46:04;15.50;99.90
18067;DHT22;9158;51.528;7.192;2023-05-09T01:46:35;15.50;99.90
18067;DHT22;9158;51.528;7.192;2023-05-09T01:47:07;15.50;99.90
18067;DHT22;9158;51.528;7.192;2023-05-09T01:47:40;15.60;99.90
18067;DHT22;9158;51.528;7.192;2023-05-09T01:48:13;15.60;99.90
18067;DHT22;9158;51.528;7.192;2023-05-09T01:48:44;15.60;99.90
18067;DHT22;9158;51.528;7.192;2023-05-09T01:49:18;15.60;99.90
18067;DHT22;9158;51.528;7.192;2023-05-09T01:49:51;15.60;99.90
18067;DHT22;9158;51.528;7.192;2023-05-09T01:50:23;15.60;99.90
18067;DHT22;9158;51.528;7.192;2023-05-09T01:50:56;15.60;99.90
18067;DHT22;9158;51.528;7.192;2023-05-09T01:51:28;15.60;99.90
18067;DHT22;9158;51.528;7.192;2023-05-09T01:52:03;15.60;99.90
18067;DHT22;9158;51.528;7.192;2023-05-09T01:52:37;15.60;99.90
18067;DHT22;9158;51.528;7.192;2023-05-09T01:53:10;15.60;99.90
18067;DHT22;9158;51.528;7.192;2023-05-09T01:53:43;15.60;99.90
18067;DHT22;9158;51.528;7.192;2023-05-09T01:54:16;15.60;99.90
18067;DHT22;9158;51.528;7.192;2023-05-09T01:54:49;15.60;99.90
18067;DHT22;9158;51.528;7.192;2023-05-09T01:55:22;15.60;99.90
18067;DHT22;9158;51.528;7.192;2023-05-09T01:55:56;15.60;99.90
18067;DHT22;9158;51.528;7.192;2023-05-09T01:56:28;15.60;99.90
18067;DHT22;9158;51.528;7.192;2023-05-09T01:57:34;15.70;99.90
18067;DHT22;9158;51.528;7.192;2023-05-09T01:58:07;15.60;99.90
18067;DHT22;9158;51.528;7.192;2023-05-09T01:58:38;15.60;99.90
18067;DHT22;9158;51.528;7.192;2023-05-09T01:59:12;15.60;99.90
18067;DHT22;9158;51.528;7.192;2023-05-09T01:59:47;15.60;99.90
18067;DHT22;9158;51.528;7.192;2023-05-09T02:00:21;15.60;99.90
18067;DHT22;9158;51.528;7.192;2023-05-09T02:00:54;15.60;99.90
18067;DHT22;9158;51.528;7.192;2023-05-09T02:01:26;15.60;99.90
18067;DHT22;9158;51.528;7.192;2023-05-09T02:01:57;15.60;99.90
18067;DHT22;9158;51.528;7.192;2023-05-09T02:02:30;15.60;99.90
18067;DHT22;9158;51.528;7.192;2023-05-09T02:03:03;15.60;99.90
18067;DHT22;9158;51.528;7.192;2023-05-09T02:03:35;15.60;99.90
18067;DHT22;9158;51.528;7.192;2023-05-09T02:04:08;15.60;99.90
18067;DHT22;9158;51.528;7.192;2023-05-09T02:04:40;15.60;99.90
18067;DHT22;9158;51.528;7.192;2023-05-09T02:05:13;15.60;99.90
18067;DHT22;9158;51.528;7.192;2023-05-09T02:05:46;15.60;99.90
18067;DHT22;9158;51.528;7.192;2023-05-09T02:06:19;15.60;99.90
18067;DHT22;9158;51.528;7.192;2023-05-09T02:06:52;15.60;99.90
18067;DHT22;9158;51.528;7.192;2023-05-09T02:07:25;15.60;99.90
18067;DHT22;9158;51.528;7.192;2023-05-09T02:07:59;15.60;99.90
18067;DHT22;9158;51.528;7.192;2023-05-09T02:08:31;15.60;99.90
18067;DHT22;9158;51.528;7.192;2023-05-09T02:09:04;15.60;99.90
18067;DHT22;9158;51.528;7.192;2023-05-09T02:09:35;15.60;99.90
18067;DHT22;9158;51.528;7.192;2023-05-09T02:10:08;15.60;99.90
18067;DHT22;9158;51.528;7.192;2023-05-09T02:10:41;15.60;99.90
18067;DHT22;9158;51.528;7.192;2023-05-09T02:11:15;15.60;99.90
18067;DHT22;9158;51.528;7.192;2023-05-09T02:11:46;15.60;99.90
18067;DHT22;9158;51.528;7.192;2023-05-09T02:12:17;15.60;99.90
18067;DHT22;9158;51.528;7.192;2023-05-09T02:12:49;15.60;99.90
18067;DHT22;9158;51.528;7.192;2023-05-09T02:13:20;15.60;95.40
18067;DHT22;9158;51.528;7.192;2023-05-09T02:13:52;15.60;71.70
18067;DHT22;9158;51.528;7.192;2023-05-09T02:14:24;15.60;89.00
18067;DHT22;9158;51.528;7.192;2023-05-09T02:14:55;15.50;66.30
18067;DHT22;9158;51.528;7.192;2023-05-09T02:15:28;15.50;90.50
18067;DHT22;9158;51.528;7.192;2023-05-09T02:16:01;15.50;99.90
18067;DHT22;9158;51.528;7.192;2023-05-09T02:16:32;15.50;99.90
18067;DHT22;9158;51.528;7.192;2023-05-09T02:17:04;15.50;99.90
18067;DHT22;9158;51.528;7.192;2023-05-09T02:17:36;15.50;99.90
18067;DHT22;9158;51.528;7.192;2023-05-09T02:18:07;15.50;99.90
18067;DHT22;9158;51.528;7.192;2023-05-09T02:18:38;15.50;94.90
18067;DHT22;9158;51.528;7.192;2023-05-09T02:19:11;15.50;99.90
18067;DHT22;9158;51.528;7.192;2023-05-09T02:19:42;15.40;99.90
18067;DHT22;9158;51.528;7.192;2023-05-09T02:20:13;15.40;99.90
18067;DHT22;9158;51.528;7.192;2023-05-09T02:20:46;15.40;99.90
18067;DHT22;9158;51.528;7.192;2023-05-09T02:21:17;15.40;99.90
18067;DHT22;9158;51.528;7.192;2023-05-09T02:21:48;15.40;99.90
18067;DHT22;9158;51.528;7.192;2023-05-09T02:22:20;15.40;99.90
18067;DHT22;9158;51.528;7.192;2023-05-09T02:22:51;15.40;99.90
18067;DHT22;9158;51.528;7.192;2023-05-09T02:23:23;15.40;99.90
18067;DHT22;9158;51.528;7.192;2023-05-09T02:23:55;15.40;99.90
18067;DHT22;9158;51.528;7.192;2023-05-09T02:24:26;15.40;99.90
18067;DHT22;9158;51.528;7.192;2023-05-09T02:24:58;15.40;99.90
18067;DHT22;9158;51.528;7.192;2023-05-09T02:25:30;14.20;99.90
18067;DHT22;9158;51.528;7.192;2023-05-09T02:26:03;15.40;99.90
18067;DHT22;9158;51.528;7.192;2023-05-09T02:26:34;15.40;99.90
18067;DHT22;9158;51.528;7.192;2023-05-09T02:27:07;15.40;99.90
18067;DHT22;9158;51.528;7.192;2023-05-09T02:27:40;15.40;99.90
18067;DHT22;9158;51.528;7.192;2023-05-09T02:28:12;15.40;99.90
18067;DHT22;9158;51.528;7.192;2023-05-09T02:28:46;15.40;99.90
18067;DHT22;9158;51.528;7.192;2023-05-09T02:29:18;15.40;99.90
18067;DHT22;9158;51.528;7.192;2023-05-09T02:29:54;15.40;99.90
18067;DHT22;9158;51.528;7.192;2023-05-09T02:30:34;15.50;99.90
18067;DHT22;9158;51.528;7.192;2023-05-09T02:31:07;15.40;99.90
18067;DHT22;9158;51.528;7.192;2023-05-09T02:31:40;15.40;99.90
18067;DHT22;9158;51.528;7.192;2023-05-09T02:32:14;15.40;99.90
18067;DHT22;9158;51.528;7.192;2023-05-09T02:32:47;15.40;99.90
18067;DHT22;9158;51.528;7.192;2023-05-09T02:33:19;15.40;99.90
18067;DHT22;9158;51.528;7.192;2023-05-09T02:33:52;15.40;99.90
18067;DHT22;9158;51.528;7.192;2023-05-09T02:34:24;15.40;99.90
18067;DHT22;9158;51.528;7.192;2023-05-09T02:34:57;15.40;99.90
18067;DHT22;9158;51.528;7.192;2023-05-09T02:35:29;15.40;99.90
18067;DHT22;9158;51.528;7.192;2023-05-09T02:36:01;15.40;99.90
18067;DHT22;9158;51.528;7.192;2023-05-09T02:36:33;15.40;99.90
18067;DHT22;9158;51.528;7.192;2023-05-09T02:37:04;15.40;99.90
18067;DHT22;9158;51.528;7.192;2023-05-09T02:37:38;15.40;99.90
18067;DHT22;9158;51.528;7.192;2023-05-09T02:38:10;15.40;99.90
18067;DHT22;9158;51.528;7.192;2023-05-09T02:38:42;15.40;99.90
18067;DHT22;9158;51.528;7.192;2023-05-09T02:39:15;15.40;99.90
18067;DHT22;9158;51.528;7.192;2023-05-09T02:39:46;15.40;99.90
18067;DHT22;9158;51.528;7.192;2023-05-09T02:40:18;15.40;99.90
18067;DHT22;9158;51.528;7.192;2023-05-09T02:40:52;15.40;99.90
18067;DHT22;9158;51.528;7.192;2023-05-09T02:41:25;15.40;99.90
18067;DHT22;9158;51.528;7.192;2023-05-09T02:42:04;15.40;99.90
18067;DHT22;9158;51.528;7.192;2023-05-09T02:42:36;15.40;99.90
18067;DHT22;9158;51.528;7.192;2023-05-09T02:43:07;15.40;99.90
18067;DHT22;9158;51.528;7.192;2023-05-09T02:43:39;15.40;99.90
18067;DHT22;9158;51.528;7.192;2023-05-09T02:44:11;15.40;99.90
18067;DHT22;9158;51.528;7.192;2023-05-09T02:44:42;15.40;99.90
18067;DHT22;9158;51.528;7.192;2023-05-09T02:45:13;15.40;99.90
18067;DHT22;9158;51.528;7.192;2023-05-09T02:45:46;15.40;99.90
18067;DHT22;9158;51.528;7.192;2023-05-09T02:46:18;15.40;99.90
18067;DHT22;9158;51.528;7.192;2023-05-09T02:46:49;15.40;99.90
18067;DHT22;9158;51.528;7.192;2023-05-09T02:47:20;15.40;99.90
18067;DHT22;9158;51.528;7.192;2023-05-09T02:47:52;15.40;99.90
18067;DHT22;9158;51.528;7.192;2023-05-09T02:48:23;15.40;99.90
18067;DHT22;9158;51.528;7.192;2023-05-09T02:48:54;15.40;99.90
18067;DHT22;9158;51.528;7.192;2023-05-09T02:49:28;15.40;99.90
18067;DHT22;9158;51.528;7.192;2023-05-09T02:49:59;15.40;99.90
18067;DHT22;9158;51.528;7.192;2023-05-09T02:50:30;15.40;99.90
18067;DHT22;9158;51.528;7.192;2023-05-09T02:51:01;15.40;99.90
18067;DHT22;9158;51.528;7.192;2023-05-09T02:51:33;15.40;99.90
18067;DHT22;9158;51.528;7.192;2023-05-09T02:52:04;15.40;99.90
18067;DHT22;9158;51.528;7.192;2023-05-09T02:52:35;15.40;99.90
18067;DHT22;9158;51.528;7.192;2023-05-09T02:53:07;15.50;99.90
18067;DHT22;9158;51.528;7.192;2023-05-09T02:53:38;15.40;99.90
18067;DHT22;9158;51.528;7.192;2023-05-09T02:54:09;15.40;99.90
18067;DHT22;9158;51.528;7.192;2023-05-09T02:54:40;15.40;99.90
18067;DHT22;9158;51.528;7.192;2023-05-09T02:55:12;15.40;99.90
18067;DHT22;9158;51.528;7.192;2023-05-09T02:55:45;15.40;99.90
18067;DHT22;9158;51.528;7.192;2023-05-09T02:56:16;15.40;99.90
18067;DHT22;9158;51.528;7.192;2023-05-09T02:56:48;15.40;99.90
18067;DHT22;9158;51.528;7.192;2023-05-09T02:57:19;15.40;99.90
18067;DHT22;9158;51.528;7.192;2023-05-09T02:57:50;15.40;99.90
18067;DHT22;9158;51.528;7.192;2023-05-09T02:58:22;15.40;99.90
18067;DHT22;9158;51.528;7.192;2023-05-09T02:58:53;15.40;99.90
18067;DHT22;9158;51.528;7.192;2023-05-09T02:59:25;15.40;99.90
18067;DHT22;9158;51.528;7.192;2023-05-09T02:59:56;15.40;99.90
18067;DHT22;9158;51.528;7.192;2023-05-09T03:00:28;15.50;99.90
18067;DHT22;9158;51.528;7.192;2023-05-09T03:01:01;15.40;99.90
18067;DHT22;9158;51.528;7.192;2023-05-09T03:01:32;15.50;99.90
18067;DHT22;9158;51.528;7.192;2023-05-09T03:02:04;15.40;99.90
18067;DHT22;9158;51.528;7.192;2023-05-09T03:02:35;15.40;99.90
18067;DHT22;9158;51.528;7.192;2023-05-09T03:03:06;15.40;99.90
18067;DHT22;9158;51.528;7.192;2023-05-09T03:03:38;15.40;99.90
18067;DHT22;9158;51.528;7.192;2023-05-09T03:04:09;15.50;99.90
18067;DHT22;9158;51.528;7.192;2023-05-09T03:04:41;15.40;99.90
18067;DHT22;9158;51.528;7.192;2023-05-09T03:05:13;15.40;99.90
18067;DHT22;9158;51.528;7.192;2023-05-09T03:05:44;15.40;99.90
18067;DHT22;9158;51.528;7.192;2023-05-09T03:06:16;15.50;99.90
18067;DHT22;9158;51.528;7.192;2023-05-09T03:06:48;15.40;99.90
18067;DHT22;9158;51.528;7.192;2023-05-09T03:07:19;15.40;99.90
18067;DHT22;9158;51.528;7.192;2023-05-09T03:07:50;15.40;99.90
18067;DHT22;9158;51.528;7.192;2023-05-09T03:08:22;15.40;99.90
18067;DHT22;9158;51.528;7.192;2023-05-09T03:08:53;15.40;99.90
18067;DHT22;9158;51.528;7.192;2023-05-09T03:09:25;15.40;99.90
18067;DHT22;9158;51.528;7.192;2023-05-09T03:09:56;15.40;99.90
18067;DHT22;9158;51.528;7.192;2023-05-09T03:10:28;15.40;99.90
18067;DHT22;9158;51.528;7.192;2023-05-09T03:10:59;15.40;99.90
18067;DHT22;9158;51.528;7.192;2023-05-09T03:11:30;15.40;99.90
18067;DHT22;9158;51.528;7.192;2023-05-09T03:12:02;15.40;99.90
18067;DHT22;9158;51.528;7.192;2023-05-09T03:12:34;15.40;99.90
18067;DHT22;9158;51.528;7.192;2023-05-09T03:13:05;15.40;99.90
18067;DHT22;9158;51.528;7.192;2023-05-09T03:13:36;15.40;99.90
18067;DHT22;9158;51.528;7.192;2023-05-09T03:14:08;15.40;99.90
18067;DHT22;9158;51.528;7.192;2023-05-09T03:14:40;15.40;99.90
18067;DHT22;9158;51.528;7.192;2023-05-09T03:15:12;15.40;99.90
18067;DHT22;9158;51.528;7.192;2023-05-09T03:15:45;15.40;99.90
18067;DHT22;9158;51.528;7.192;2023-05-09T03:16:19;15.40;99.90
18067;DHT22;9158;51.528;7.192;2023-05-09T03:16:50;15.40;99.90
18067;DHT22;9158;51.528;7.192;2023-05-09T03:17:30;15.40;99.90
18067;DHT22;9158;51.528;7.192;2023-05-09T03:18:01;15.40;99.90
18067;DHT22;9158;51.528;7.192;2023-05-09T03:18:33;15.30;99.90
18067;DHT22;9158;51.528;7.192;2023-05-09T03:19:04;15.30;99.90
18067;DHT22;9158;51.528;7.192;2023-05-09T03:19:35;15.30;99.90
18067;DHT22;9158;51.528;7.192;2023-05-09T03:20:08;15.40;99.90
18067;DHT22;9158;51.528;7.192;2023-05-09T03:20:40;15.40;99.90
18067;DHT22;9158;51.528;7.192;2023-05-09T03:21:11;15.40;99.90
18067;DHT22;9158;51.528;7.192;2023-05-09T03:21:43;15.30;99.90
18067;DHT22;9158;51.528;7.192;2023-05-09T03:22:14;15.30;99.90
18067;DHT22;9158;51.528;7.192;2023-05-09T03:22:54;15.30;99.90
18067;DHT22;9158;51.528;7.192;2023-05-09T03:23:26;15.30;99.90
18067;DHT22;9158;51.528;7.192;2023-05-09T03:23:58;15.40;99.90
18067;DHT22;9158;51.528;7.192;2023-05-09T03:24:29;15.30;99.90
18067;DHT22;9158;51.528;7.192;2023-05-09T03:25:01;15.30;99.90
18067;DHT22;9158;51.528;7.192;2023-05-09T03:25:32;15.30;99.90
18067;DHT22;9158;51.528;7.192;2023-05-09T03:26:03;15.30;99.90
18067;DHT22;9158;51.528;7.192;2023-05-09T03:26:34;15.30;99.90
18067;DHT22;9158;51.528;7.192;2023-05-09T03:27:06;15.30;99.90
18067;DHT22;9158;51.528;7.192;2023-05-09T03:27:38;15.30;99.90
18067;DHT22;9158;51.528;7.192;2023-05-09T03:28:12;15.30;99.90
18067;DHT22;9158;51.528;7.192;2023-05-09T03:28:44;15.30;99.90
18067;DHT22;9158;51.528;7.192;2023-05-09T03:29:15;15.30;99.90
18067;DHT22;9158;51.528;7.192;2023-05-09T03:29:46;15.30;99.90
18067;DHT22;9158;51.528;7.192;2023-05-09T03:30:20;15.30;99.90
18067;DHT22;9158;51.528;7.192;2023-05-09T03:30:53;15.30;99.90
18067;DHT22;9158;51.528;7.192;2023-05-09T03:31:29;15.30;99.90
18067;DHT22;9158;51.528;7.192;2023-05-09T03:32:00;15.30;99.90
18067;DHT22;9158;51.528;7.192;2023-05-09T03:32:32;15.30;99.90
18067;DHT22;9158;51.528;7.192;2023-05-09T03:33:03;15.30;99.90
18067;DHT22;9158;51.528;7.192;2023-05-09T03:33:34;15.30;99.90